JET747 DAAG-DTTA
Flight info
| Callsign | JET747 |
|---|---|
| Flight time | 0h 59m |
| Altitude | 37000 |
| Route | BJA1A BJA UA411 MORJA UM978 KEMIR UA411 TUC DCT |
| Aircraft | A20N/M-SDE2E3FGHIRWXY/LB1 |
Departure
| Time | 2026-05-08 00:20 |
|---|---|
| Airport | Houari Boumediene Airport (DAAG) |
Arrival
| Time | 2026-05-08 01:19 |
|---|---|
| Airport | Tunis Carthage International Airport (DTTA) |
| Time | Latitude | Longitude | Altitude | Speed | Heading |
|---|---|---|---|---|---|
| 2026-05-08 00:10 | 36.69612 | 3.21487 | 85 ft | 0 kts | 28° |
| 2026-05-08 00:14 | 36.69603 | 3.21481 | 84 ft | 3 kts | 28° |
| 2026-05-08 00:14 | 36.69586 | 3.21470 | 86 ft | 3 kts | 28° |
| 2026-05-08 00:15 | 36.69570 | 3.21459 | 86 ft | 3 kts | 30° |
| 2026-05-08 00:15 | 36.69556 | 3.21442 | 84 ft | 3 kts | 72° |
| 2026-05-08 00:15 | 36.69554 | 3.21426 | 80 ft | 0 kts | 101° |
| 2026-05-08 00:15 | 36.69554 | 3.21423 | 80 ft | 0 kts | 106° |
| 2026-05-08 00:18 | 36.69539 | 3.21481 | 83 ft | 17 kts | 102° |
| 2026-05-08 00:18 | 36.69575 | 3.21686 | 81 ft | 30 kts | 101° |
| 2026-05-08 00:18 | 36.69446 | 3.21783 | 83 ft | 29 kts | 154° |
| 2026-05-08 00:19 | 36.69378 | 3.21904 | 85 ft | 18 kts | 94° |
| 2026-05-08 00:19 | 36.69400 | 3.22050 | 84 ft | 16 kts | 51° |
| 2026-05-08 00:19 | 36.69467 | 3.22153 | 81 ft | 33 kts | 51° |
| 2026-05-08 00:19 | 36.69764 | 3.22612 | 84 ft | 101 kts | 51° |
| 2026-05-08 00:20 | 36.70316 | 3.23528 | 106 ft | 158 kts | 53° |
| 2026-05-08 00:20 | 36.70988 | 3.24569 | 812 ft | 144 kts | 39° |
| 2026-05-08 00:20 | 36.71792 | 3.24784 | 1674 ft | 119 kts | 330° |
| 2026-05-08 00:20 | 36.72193 | 3.23853 | 1863 ft | 141 kts | 281° |
| 2026-05-08 00:21 | 36.72800 | 3.22803 | 2097 ft | 169 kts | 333° |
| 2026-05-08 00:21 | 36.74025 | 3.22773 | 2350 ft | 194 kts | 21° |
| 2026-05-08 00:21 | 36.75276 | 3.23611 | 2635 ft | 217 kts | 36° |
| 2026-05-08 00:21 | 36.76199 | 3.25247 | 2972 ft | 250 kts | 76° |
| 2026-05-08 00:22 | 36.76098 | 3.27429 | 3798 ft | 259 kts | 109° |
| 2026-05-08 00:22 | 36.75369 | 3.29501 | 4744 ft | 264 kts | 116° |
| 2026-05-08 00:22 | 36.74541 | 3.31571 | 5499 ft | 268 kts | 116° |
| 2026-05-08 00:22 | 36.73726 | 3.33670 | 5897 ft | 271 kts | 115° |
| 2026-05-08 00:23 | 36.72932 | 3.35821 | 5995 ft | 273 kts | 114° |
| 2026-05-08 00:23 | 36.72158 | 3.37997 | 6203 ft | 276 kts | 114° |
| 2026-05-08 00:23 | 36.71393 | 3.40202 | 7015 ft | 279 kts | 113° |
| 2026-05-08 00:23 | 36.70631 | 3.42427 | 8008 ft | 279 kts | 113° |
| 2026-05-08 00:24 | 36.69873 | 3.44664 | 8923 ft | 282 kts | 113° |
| 2026-05-08 00:24 | 36.69106 | 3.46936 | 9800 ft | 286 kts | 113° |
| 2026-05-08 00:24 | 36.68324 | 3.49256 | 10498 ft | 298 kts | 113° |
| 2026-05-08 00:24 | 36.67491 | 3.51722 | 10885 ft | 320 kts | 113° |
| 2026-05-08 00:25 | 36.66605 | 3.54327 | 11463 ft | 332 kts | 113° |
| 2026-05-08 00:25 | 36.65730 | 3.57016 | 12223 ft | 338 kts | 109° |
| 2026-05-08 00:25 | 36.65216 | 3.59886 | 13022 ft | 343 kts | 95° |
| 2026-05-08 00:25 | 36.65208 | 3.62866 | 13856 ft | 346 kts | 86° |
| 2026-05-08 00:26 | 36.65397 | 3.65875 | 14651 ft | 351 kts | 85° |
| 2026-05-08 00:26 | 36.65614 | 3.68921 | 15420 ft | 355 kts | 85° |
| 2026-05-08 00:26 | 36.65817 | 3.72007 | 16184 ft | 359 kts | 85° |
| 2026-05-08 00:26 | 36.66001 | 3.75126 | 16907 ft | 363 kts | 86° |
| 2026-05-08 00:27 | 36.66170 | 3.78251 | 17581 ft | 368 kts | 86° |
| 2026-05-08 00:27 | 36.66335 | 3.81495 | 18251 ft | 373 kts | 86° |
| 2026-05-08 00:27 | 36.66493 | 3.84732 | 18911 ft | 376 kts | 86° |
| 2026-05-08 00:27 | 36.66649 | 3.88000 | 19563 ft | 380 kts | 86° |
| 2026-05-08 00:28 | 36.66804 | 3.91298 | 20199 ft | 383 kts | 86° |
| 2026-05-08 00:28 | 36.66958 | 3.94621 | 20830 ft | 386 kts | 86° |
| 2026-05-08 00:28 | 36.67112 | 3.97982 | 21437 ft | 390 kts | 86° |
| 2026-05-08 00:28 | 36.67266 | 4.01370 | 22008 ft | 394 kts | 86° |
| 2026-05-08 00:29 | 36.67418 | 4.04745 | 22568 ft | 397 kts | 86° |
| 2026-05-08 00:29 | 36.67573 | 4.08201 | 23115 ft | 401 kts | 86° |
| 2026-05-08 00:29 | 36.67728 | 4.11682 | 23664 ft | 404 kts | 86° |
| 2026-05-08 00:29 | 36.67884 | 4.15191 | 24199 ft | 407 kts | 87° |
| 2026-05-08 00:30 | 36.68039 | 4.18719 | 24694 ft | 410 kts | 87° |
| 2026-05-08 00:30 | 36.68194 | 4.22279 | 25167 ft | 413 kts | 87° |
| 2026-05-08 00:30 | 36.68350 | 4.25869 | 25634 ft | 416 kts | 87° |
| 2026-05-08 00:30 | 36.68506 | 4.29484 | 26070 ft | 419 kts | 87° |
| 2026-05-08 00:31 | 36.68661 | 4.33124 | 26479 ft | 422 kts | 87° |
| 2026-05-08 00:31 | 36.68817 | 4.36786 | 26901 ft | 425 kts | 87° |
| 2026-05-08 00:31 | 36.68972 | 4.40476 | 27302 ft | 427 kts | 87° |
| 2026-05-08 00:31 | 36.69127 | 4.44179 | 27655 ft | 431 kts | 87° |
| 2026-05-08 00:32 | 36.69282 | 4.47915 | 27967 ft | 434 kts | 87° |
| 2026-05-08 00:32 | 36.69437 | 4.51696 | 28251 ft | 438 kts | 87° |
| 2026-05-08 00:32 | 36.69592 | 4.55492 | 28566 ft | 440 kts | 87° |
| 2026-05-08 00:32 | 36.69748 | 4.59314 | 28872 ft | 443 kts | 87° |
| 2026-05-08 00:33 | 36.69903 | 4.63169 | 29166 ft | 446 kts | 87° |
| 2026-05-08 00:33 | 36.70058 | 4.67034 | 29455 ft | 448 kts | 87° |
| 2026-05-08 00:33 | 36.70212 | 4.70915 | 29799 ft | 450 kts | 87° |
| 2026-05-08 00:33 | 36.70366 | 4.74820 | 30127 ft | 451 kts | 87° |
| 2026-05-08 00:34 | 36.70518 | 4.78728 | 30447 ft | 453 kts | 87° |
| 2026-05-08 00:34 | 36.70670 | 4.82649 | 30799 ft | 454 kts | 87° |
| 2026-05-08 00:34 | 36.70821 | 4.86584 | 31143 ft | 454 kts | 87° |
| 2026-05-08 00:34 | 36.70968 | 4.90466 | 31555 ft | 453 kts | 87° |
| 2026-05-08 00:35 | 36.71114 | 4.94377 | 31959 ft | 452 kts | 87° |
| 2026-05-08 00:35 | 36.71257 | 4.98275 | 32355 ft | 450 kts | 87° |
| 2026-05-08 00:35 | 36.71399 | 5.02173 | 32743 ft | 449 kts | 87° |
| 2026-05-08 00:35 | 36.71540 | 5.06049 | 33093 ft | 448 kts | 87° |
| 2026-05-08 00:36 | 36.71786 | 5.09909 | 33439 ft | 447 kts | 84° |
| 2026-05-08 00:36 | 36.72133 | 5.13762 | 33769 ft | 446 kts | 83° |
| 2026-05-08 00:36 | 36.72532 | 5.17599 | 34082 ft | 445 kts | 82° |
| 2026-05-08 00:36 | 36.72954 | 5.21419 | 34387 ft | 445 kts | 82° |
| 2026-05-08 00:37 | 36.73384 | 5.25243 | 34682 ft | 444 kts | 82° |
| 2026-05-08 00:37 | 36.73808 | 5.29047 | 34964 ft | 444 kts | 82° |
| 2026-05-08 00:37 | 36.74228 | 5.32862 | 35240 ft | 443 kts | 82° |
| 2026-05-08 00:38 | 36.75046 | 5.40483 | 35766 ft | 442 kts | 82° |
| 2026-05-08 00:38 | 36.75446 | 5.44284 | 36014 ft | 442 kts | 82° |
| 2026-05-08 00:38 | 36.75844 | 5.48087 | 36247 ft | 442 kts | 82° |
| 2026-05-08 00:38 | 36.76238 | 5.51880 | 36474 ft | 442 kts | 82° |
| 2026-05-08 00:39 | 36.76631 | 5.55679 | 36688 ft | 442 kts | 83° |
| 2026-05-08 00:39 | 36.77023 | 5.59481 | 36890 ft | 442 kts | 83° |
| 2026-05-08 00:39 | 36.77414 | 5.63286 | 36991 ft | 442 kts | 83° |
| 2026-05-08 00:40 | 36.78188 | 5.70842 | 36999 ft | 437 kts | 83° |
| 2026-05-08 00:40 | 36.78953 | 5.78354 | 37000 ft | 436 kts | 83° |
| 2026-05-08 00:41 | 36.79710 | 5.85869 | 36999 ft | 436 kts | 84° |
| 2026-05-08 00:41 | 36.80031 | 5.93421 | 37000 ft | 436 kts | 88° |
| 2026-05-08 00:42 | 36.80189 | 6.00984 | 36999 ft | 436 kts | 89° |
| 2026-05-08 00:42 | 36.80336 | 6.08581 | 37001 ft | 439 kts | 88° |
| 2026-05-08 00:43 | 36.80498 | 6.16128 | 36999 ft | 437 kts | 88° |
| 2026-05-08 00:43 | 36.80671 | 6.23697 | 37000 ft | 436 kts | 88° |
| 2026-05-08 00:44 | 36.80845 | 6.31268 | 37000 ft | 437 kts | 88° |
| 2026-05-08 00:44 | 36.81015 | 6.38853 | 37000 ft | 437 kts | 88° |
| 2026-05-08 00:45 | 36.81180 | 6.46437 | 37001 ft | 438 kts | 88° |
| 2026-05-08 00:45 | 36.81313 | 6.52756 | 37000 ft | 438 kts | 88° |
| 2026-05-08 00:46 | 36.81468 | 6.60335 | 37000 ft | 436 kts | 88° |
| 2026-05-08 00:46 | 36.81618 | 6.67907 | 37000 ft | 436 kts | 89° |
| 2026-05-08 00:47 | 36.81764 | 6.75490 | 37001 ft | 438 kts | 89° |
| 2026-05-08 00:47 | 36.81905 | 6.83088 | 37001 ft | 438 kts | 89° |
| 2026-05-08 00:48 | 36.82041 | 6.90677 | 36999 ft | 437 kts | 89° |
| 2026-05-08 00:48 | 36.82172 | 6.98262 | 36999 ft | 437 kts | 89° |
| 2026-05-08 00:49 | 36.82298 | 7.05842 | 37001 ft | 437 kts | 89° |
| 2026-05-08 00:49 | 36.82419 | 7.13427 | 37000 ft | 437 kts | 89° |
| 2026-05-08 00:50 | 36.82536 | 7.21004 | 36999 ft | 436 kts | 89° |
| 2026-05-08 00:50 | 36.82648 | 7.28595 | 37000 ft | 436 kts | 89° |
| 2026-05-08 00:51 | 36.82754 | 7.36114 | 37000 ft | 436 kts | 89° |
| 2026-05-08 00:51 | 36.82856 | 7.43690 | 37000 ft | 436 kts | 89° |
| 2026-05-08 00:52 | 36.82953 | 7.51254 | 37000 ft | 436 kts | 89° |
| 2026-05-08 00:52 | 36.83045 | 7.58821 | 37000 ft | 436 kts | 89° |
| 2026-05-08 00:53 | 36.83133 | 7.66385 | 37000 ft | 436 kts | 89° |
| 2026-05-08 00:53 | 36.83214 | 7.73802 | 37000 ft | 436 kts | 89° |
| 2026-05-08 00:54 | 36.83291 | 7.81370 | 37000 ft | 436 kts | 89° |
| 2026-05-08 00:54 | 36.83346 | 7.88930 | 37000 ft | 436 kts | 89° |
| 2026-05-08 00:55 | 36.83385 | 7.96553 | 37001 ft | 441 kts | 90° |
| 2026-05-08 00:55 | 36.83417 | 8.04177 | 37000 ft | 443 kts | 90° |
| 2026-05-08 00:56 | 36.83446 | 8.11861 | 37000 ft | 443 kts | 90° |
| 2026-05-08 00:56 | 36.83470 | 8.19544 | 36999 ft | 442 kts | 90° |
| 2026-05-08 00:57 | 36.83489 | 8.27158 | 36999 ft | 437 kts | 90° |
| 2026-05-08 00:57 | 36.83502 | 8.34785 | 36470 ft | 444 kts | 90° |
| 2026-05-08 00:57 | 36.83508 | 8.38668 | 35601 ft | 450 kts | 90° |
| 2026-05-08 00:58 | 36.83515 | 8.42605 | 34739 ft | 455 kts | 90° |
| 2026-05-08 00:58 | 36.83520 | 8.46272 | 33979 ft | 459 kts | 90° |
| 2026-05-08 00:58 | 36.83525 | 8.50260 | 33171 ft | 461 kts | 90° |
| 2026-05-08 00:58 | 36.83529 | 8.54276 | 32355 ft | 464 kts | 90° |
| 2026-05-08 00:59 | 36.83532 | 8.58315 | 31597 ft | 464 kts | 90° |
| 2026-05-08 00:59 | 36.83533 | 8.62341 | 30924 ft | 462 kts | 90° |
| 2026-05-08 00:59 | 36.83536 | 8.66288 | 30323 ft | 459 kts | 90° |
| 2026-05-08 00:59 | 36.83551 | 8.70299 | 29725 ft | 455 kts | 90° |
| 2026-05-08 01:00 | 36.83573 | 8.74229 | 29148 ft | 451 kts | 89° |
| 2026-05-08 01:00 | 36.83598 | 8.78122 | 28563 ft | 447 kts | 89° |
| 2026-05-08 01:00 | 36.83623 | 8.81988 | 27959 ft | 444 kts | 89° |
| 2026-05-08 01:00 | 36.83647 | 8.85806 | 27390 ft | 440 kts | 89° |
| 2026-05-08 01:01 | 36.83669 | 8.89533 | 27064 ft | 430 kts | 89° |
| 2026-05-08 01:01 | 36.83689 | 8.93205 | 26993 ft | 415 kts | 89° |
| 2026-05-08 01:01 | 36.83706 | 8.96768 | 26542 ft | 409 kts | 90° |
| 2026-05-08 01:01 | 36.83721 | 9.00354 | 25611 ft | 417 kts | 90° |
| 2026-05-08 01:02 | 36.83737 | 9.03984 | 24849 ft | 420 kts | 90° |
| 2026-05-08 01:02 | 36.83751 | 9.07623 | 24233 ft | 418 kts | 90° |
| 2026-05-08 01:02 | 36.83766 | 9.11234 | 23666 ft | 414 kts | 90° |
| 2026-05-08 01:02 | 36.83779 | 9.14819 | 23092 ft | 411 kts | 90° |
| 2026-05-08 01:03 | 36.83791 | 9.18364 | 22524 ft | 407 kts | 90° |
| 2026-05-08 01:03 | 36.83801 | 9.21886 | 21961 ft | 404 kts | 90° |
| 2026-05-08 01:03 | 36.83810 | 9.25371 | 21391 ft | 400 kts | 90° |
| 2026-05-08 01:03 | 36.83818 | 9.28832 | 20803 ft | 397 kts | 90° |
| 2026-05-08 01:04 | 36.83825 | 9.32262 | 20229 ft | 393 kts | 90° |
| 2026-05-08 01:04 | 36.83830 | 9.35662 | 19644 ft | 390 kts | 90° |
| 2026-05-08 01:04 | 36.83835 | 9.39036 | 19059 ft | 387 kts | 90° |
| 2026-05-08 01:04 | 36.83843 | 9.42368 | 18524 ft | 382 kts | 89° |
| 2026-05-08 01:05 | 36.83875 | 9.45673 | 17938 ft | 380 kts | 89° |
| 2026-05-08 01:05 | 36.83924 | 9.48960 | 17351 ft | 376 kts | 89° |
| 2026-05-08 01:05 | 36.83983 | 9.52215 | 16781 ft | 373 kts | 89° |
| 2026-05-08 01:05 | 36.84046 | 9.55441 | 16212 ft | 370 kts | 88° |
| 2026-05-08 01:06 | 36.84109 | 9.58634 | 15642 ft | 366 kts | 88° |
| 2026-05-08 01:06 | 36.84173 | 9.61797 | 15070 ft | 363 kts | 88° |
| 2026-05-08 01:06 | 36.84234 | 9.64934 | 14484 ft | 360 kts | 89° |
| 2026-05-08 01:06 | 36.84294 | 9.68048 | 13909 ft | 357 kts | 89° |
| 2026-05-08 01:07 | 36.84352 | 9.71139 | 13328 ft | 355 kts | 89° |
| 2026-05-08 01:07 | 36.84408 | 9.74205 | 12749 ft | 352 kts | 89° |
| 2026-05-08 01:07 | 36.84463 | 9.77243 | 12189 ft | 348 kts | 89° |
| 2026-05-08 01:07 | 36.84517 | 9.80252 | 11630 ft | 345 kts | 89° |
| 2026-05-08 01:08 | 36.84568 | 9.83231 | 11072 ft | 342 kts | 89° |
| 2026-05-08 01:08 | 36.84619 | 9.86195 | 10489 ft | 339 kts | 89° |
| 2026-05-08 01:08 | 36.84668 | 9.89089 | 10202 ft | 328 kts | 89° |
| 2026-05-08 01:08 | 36.84714 | 9.91881 | 10000 ft | 315 kts | 89° |
| 2026-05-08 01:09 | 36.84756 | 9.94560 | 9812 ft | 302 kts | 89° |
| 2026-05-08 01:09 | 36.84796 | 9.97106 | 9540 ft | 293 kts | 89° |
| 2026-05-08 01:09 | 36.84834 | 9.99646 | 9079 ft | 292 kts | 89° |
| 2026-05-08 01:09 | 36.84872 | 10.02178 | 8619 ft | 291 kts | 89° |
| 2026-05-08 01:10 | 36.84910 | 10.04699 | 8171 ft | 289 kts | 89° |
| 2026-05-08 01:10 | 36.84947 | 10.07202 | 7726 ft | 288 kts | 89° |
| 2026-05-08 01:10 | 36.84985 | 10.09695 | 7287 ft | 286 kts | 89° |
| 2026-05-08 01:10 | 36.85021 | 10.12168 | 6845 ft | 284 kts | 89° |
| 2026-05-08 01:11 | 36.85057 | 10.14623 | 6407 ft | 282 kts | 89° |
| 2026-05-08 01:11 | 36.85092 | 10.17062 | 5971 ft | 280 kts | 89° |
| 2026-05-08 01:11 | 36.85127 | 10.19493 | 5535 ft | 279 kts | 89° |
| 2026-05-08 01:11 | 36.85115 | 10.21898 | 5093 ft | 277 kts | 96° |
| 2026-05-08 01:12 | 36.84656 | 10.24220 | 4657 ft | 275 kts | 109° |
| 2026-05-08 01:12 | 36.83962 | 10.26435 | 4228 ft | 273 kts | 113° |
| 2026-05-08 01:12 | 36.83220 | 10.28610 | 3795 ft | 271 kts | 113° |
| 2026-05-08 01:12 | 36.82474 | 10.30764 | 3371 ft | 270 kts | 113° |
| 2026-05-08 01:13 | 36.81735 | 10.32906 | 2933 ft | 268 kts | 113° |
| 2026-05-08 01:13 | 36.81001 | 10.35040 | 2509 ft | 266 kts | 113° |
| 2026-05-08 01:13 | 36.80280 | 10.37142 | 2237 ft | 259 kts | 113° |
| 2026-05-08 01:13 | 36.79597 | 10.39143 | 2191 ft | 242 kts | 113° |
| 2026-05-08 01:14 | 36.78850 | 10.40944 | 2181 ft | 225 kts | 129° |
| 2026-05-08 01:14 | 36.77635 | 10.42005 | 2186 ft | 210 kts | 166° |
| 2026-05-08 01:14 | 36.76214 | 10.41963 | 2198 ft | 207 kts | 201° |
| 2026-05-08 01:14 | 36.75079 | 10.40904 | 2203 ft | 207 kts | 237° |
| 2026-05-08 01:15 | 36.74637 | 10.39253 | 2200 ft | 207 kts | 270° |
| 2026-05-08 01:15 | 36.75021 | 10.37550 | 2199 ft | 207 kts | 304° |
| 2026-05-08 01:15 | 36.76125 | 10.36403 | 2201 ft | 208 kts | 339° |
| 2026-05-08 01:15 | 36.77548 | 10.36233 | 2203 ft | 209 kts | 11° |
| 2026-05-08 01:16 | 36.78929 | 10.36720 | 2154 ft | 205 kts | 13° |
| 2026-05-08 01:16 | 36.80247 | 10.36586 | 2047 ft | 188 kts | 329° |
| 2026-05-08 01:16 | 36.81026 | 10.35346 | 1872 ft | 184 kts | 287° |
| 2026-05-08 01:16 | 36.81399 | 10.33795 | 1785 ft | 188 kts | 290° |
| 2026-05-08 01:17 | 36.81876 | 10.32279 | 1566 ft | 186 kts | 291° |
| 2026-05-08 01:17 | 36.82355 | 10.30793 | 1326 ft | 178 kts | 292° |
| 2026-05-08 01:17 | 36.82843 | 10.29425 | 987 ft | 167 kts | 295° |
| 2026-05-08 01:17 | 36.83309 | 10.28170 | 753 ft | 153 kts | 294° |
| 2026-05-08 01:18 | 36.83724 | 10.26969 | 486 ft | 148 kts | 292° |
| 2026-05-08 01:18 | 36.84142 | 10.25677 | 397 ft | 176 kts | 291° |
| 2026-05-08 01:18 | 36.84603 | 10.24211 | 123 ft | 186 kts | 292° |
| 2026-05-08 01:18 | 36.85102 | 10.22723 | 32 ft | 183 kts | 292° |
| 2026-05-08 01:19 | 36.85529 | 10.21480 | 32 ft | 101 kts | 299° |
| 2026-05-08 01:19 | 36.85581 | 10.21115 | 33 ft | 28 kts | 165° |